sensor_id;sensor_type;location;lat;lon;timestamp;P1;durP1;ratioP1;P2;durP2;ratioP2
32788;SDS011;19141;48.980;8.410;2022-10-31T05:22:32;3.53;;;2.33;;
32788;SDS011;19141;48.980;8.410;2022-10-31T05:24:58;3.08;;;1.80;;
32788;SDS011;19141;48.980;8.410;2022-10-31T05:27:23;5.57;;;2.70;;
32788;SDS011;19141;48.980;8.410;2022-10-31T05:29:48;6.20;;;3.42;;
32788;SDS011;19141;48.980;8.410;2022-10-31T05:32:14;3.83;;;2.60;;
32788;SDS011;19141;48.980;8.410;2022-10-31T05:34:58;4.65;;;2.63;;
32788;SDS011;19141;48.980;8.410;2022-10-31T05:37:41;4.82;;;2.20;;
32788;SDS011;19141;48.980;8.410;2022-10-31T05:40:07;4.13;;;2.42;;
32788;SDS011;19141;48.980;8.410;2022-10-31T05:42:34;2.83;;;2.17;;
32788;SDS011;19141;48.980;8.410;2022-10-31T05:45:00;5.50;;;2.40;;
32788;SDS011;19141;48.980;8.410;2022-10-31T05:48:16;5.15;;;2.63;;
32788;SDS011;19141;48.980;8.410;2022-10-31T05:50:40;2.92;;;1.95;;
32788;SDS011;19141;48.980;8.410;2022-10-31T05:53:09;5.15;;;3.08;;
32788;SDS011;19141;48.980;8.410;2022-10-31T05:55:37;5.32;;;2.08;;
32788;SDS011;19141;48.980;8.410;2022-10-31T05:58:11;5.10;;;2.42;;
32788;SDS011;19141;48.980;8.410;2022-10-31T06:00:40;4.55;;;2.28;;
32788;SDS011;19141;48.980;8.410;2022-10-31T06:03:08;3.15;;;2.08;;
32788;SDS011;19141;48.980;8.410;2022-10-31T06:05:50;2.60;;;1.83;;
32788;SDS011;19141;48.980;8.410;2022-10-31T06:08:16;3.75;;;2.38;;
32788;SDS011;19141;48.980;8.410;2022-10-31T06:10:43;7.82;;;2.00;;
32788;SDS011;19141;48.980;8.410;2022-10-31T06:13:10;2.37;;;2.03;;
32788;SDS011;19141;48.980;8.410;2022-10-31T06:15:42;4.25;;;2.35;;
32788;SDS011;19141;48.980;8.410;2022-10-31T06:18:07;4.97;;;2.60;;
32788;SDS011;19141;48.980;8.410;2022-10-31T06:20:38;1.88;;;1.40;;
32788;SDS011;19141;48.980;8.410;2022-10-31T06:23:04;2.00;;;1.80;;
32788;SDS011;19141;48.980;8.410;2022-10-31T06:25:31;3.63;;;2.30;;
32788;SDS011;19141;48.980;8.410;2022-10-31T06:28:00;6.13;;;2.80;;
32788;SDS011;19141;48.980;8.410;2022-10-31T06:30:35;5.00;;;1.88;;
32788;SDS011;19141;48.980;8.410;2022-10-31T06:35:34;5.22;;;2.58;;
32788;SDS011;19141;48.980;8.410;2022-10-31T06:38:00;2.72;;;1.65;;
32788;SDS011;19141;48.980;8.410;2022-10-31T06:40:31;3.92;;;2.05;;
32788;SDS011;19141;48.980;8.410;2022-10-31T06:43:14;3.50;;;2.13;;
32788;SDS011;19141;48.980;8.410;2022-10-31T06:45:40;4.60;;;2.50;;
32788;SDS011;19141;48.980;8.410;2022-10-31T06:48:24;6.05;;;3.50;;
32788;SDS011;19141;48.980;8.410;2022-10-31T06:51:18;3.17;;;2.05;;
32788;SDS011;19141;48.980;8.410;2022-10-31T06:53:44;3.65;;;2.30;;
32788;SDS011;19141;48.980;8.410;2022-10-31T06:56:11;3.42;;;2.05;;
32788;SDS011;19141;48.980;8.410;2022-10-31T06:58:42;2.75;;;1.88;;
32788;SDS011;19141;48.980;8.410;2022-10-31T07:01:10;2.67;;;1.92;;
32788;SDS011;19141;48.980;8.410;2022-10-31T07:03:35;2.90;;;2.30;;
32788;SDS011;19141;48.980;8.410;2022-10-31T07:06:01;2.63;;;2.42;;
32788;SDS011;19141;48.980;8.410;2022-10-31T07:08:26;3.03;;;1.92;;
32788;SDS011;19141;48.980;8.410;2022-10-31T07:10:54;4.38;;;2.03;;
32788;SDS011;19141;48.980;8.410;2022-10-31T07:13:22;3.58;;;2.13;;
32788;SDS011;19141;48.980;8.410;2022-10-31T07:15:54;4.63;;;2.20;;
32788;SDS011;19141;48.980;8.410;2022-10-31T07:18:24;2.80;;;2.13;;
32788;SDS011;19141;48.980;8.410;2022-10-31T07:20:51;7.22;;;2.53;;
32788;SDS011;19141;48.980;8.410;2022-10-31T07:23:17;3.92;;;2.03;;
32788;SDS011;19141;48.980;8.410;2022-10-31T07:25:54;4.50;;;2.03;;
32788;SDS011;19141;48.980;8.410;2022-10-31T07:28:29;6.18;;;2.30;;
32788;SDS011;19141;48.980;8.410;2022-10-31T07:30:55;4.72;;;2.38;;
32788;SDS011;19141;48.980;8.410;2022-10-31T07:33:22;2.70;;;2.22;;
32788;SDS011;19141;48.980;8.410;2022-10-31T07:36:06;2.47;;;1.85;;
32788;SDS011;19141;48.980;8.410;2022-10-31T07:38:32;5.50;;;2.75;;
32788;SDS011;19141;48.980;8.410;2022-10-31T07:41:02;2.22;;;1.50;;
32788;SDS011;19141;48.980;8.410;2022-10-31T07:46:14;3.45;;;2.00;;
32788;SDS011;19141;48.980;8.410;2022-10-31T07:48:39;2.33;;;1.85;;
32788;SDS011;19141;48.980;8.410;2022-10-31T07:51:23;2.30;;;1.85;;
32788;SDS011;19141;48.980;8.410;2022-10-31T07:54:09;4.60;;;2.10;;
32788;SDS011;19141;48.980;8.410;2022-10-31T07:56:36;2.97;;;1.87;;
32788;SDS011;19141;48.980;8.410;2022-10-31T07:59:01;5.70;;;1.95;;
32788;SDS011;19141;48.980;8.410;2022-10-31T08:01:27;2.97;;;1.90;;
32788;SDS011;19141;48.980;8.410;2022-10-31T08:04:19;4.57;;;1.90;;
32788;SDS011;19141;48.980;8.410;2022-10-31T08:07:03;3.60;;;1.95;;
32788;SDS011;19141;48.980;8.410;2022-10-31T08:09:33;4.05;;;2.38;;
32788;SDS011;19141;48.980;8.410;2022-10-31T08:12:03;3.25;;;2.28;;
32788;SDS011;19141;48.980;8.410;2022-10-31T08:14:31;3.13;;;1.58;;
32788;SDS011;19141;48.980;8.410;2022-10-31T08:16:56;4.82;;;1.73;;
32788;SDS011;19141;48.980;8.410;2022-10-31T08:19:23;6.03;;;2.33;;
32788;SDS011;19141;48.980;8.410;2022-10-31T08:21:52;3.75;;;2.10;;
32788;SDS011;19141;48.980;8.410;2022-10-31T08:24:23;3.25;;;1.92;;
32788;SDS011;19141;48.980;8.410;2022-10-31T08:26:49;3.80;;;2.55;;
32788;SDS011;19141;48.980;8.410;2022-10-31T08:29:16;1.87;;;1.53;;
32788;SDS011;19141;48.980;8.410;2022-10-31T08:31:42;3.85;;;1.77;;
32788;SDS011;19141;48.980;8.410;2022-10-31T08:34:26;3.17;;;2.40;;
32788;SDS011;19141;48.980;8.410;2022-10-31T08:37:27;3.63;;;1.67;;
32788;SDS011;19141;48.980;8.410;2022-10-31T08:39:54;4.83;;;1.80;;
32788;SDS011;19141;48.980;8.410;2022-10-31T08:42:20;2.50;;;1.92;;
32788;SDS011;19141;48.980;8.410;2022-10-31T08:44:45;4.75;;;2.20;;
32788;SDS011;19141;48.980;8.410;2022-10-31T08:47:12;4.88;;;2.00;;
32788;SDS011;19141;48.980;8.410;2022-10-31T08:49:37;3.95;;;2.03;;
32788;SDS011;19141;48.980;8.410;2022-10-31T08:52:02;4.28;;;2.15;;
32788;SDS011;19141;48.980;8.410;2022-10-31T08:54:33;2.83;;;1.90;;
32788;SDS011;19141;48.980;8.410;2022-10-31T08:57:17;3.80;;;2.28;;
32788;SDS011;19141;48.980;8.410;2022-10-31T08:59:44;4.25;;;1.80;;
32788;SDS011;19141;48.980;8.410;2022-10-31T09:02:37;3.10;;;1.98;;
32788;SDS011;19141;48.980;8.410;2022-10-31T09:05:04;2.72;;;2.03;;
32788;SDS011;19141;48.980;8.410;2022-10-31T09:07:29;5.13;;;2.03;;
32788;SDS011;19141;48.980;8.410;2022-10-31T09:09:55;2.95;;;2.10;;
32788;SDS011;19141;48.980;8.410;2022-10-31T09:12:21;4.20;;;2.08;;
32788;SDS011;19141;48.980;8.410;2022-10-31T09:15:07;3.40;;;2.47;;
32788;SDS011;19141;48.980;8.410;2022-10-31T09:17:47;6.18;;;2.42;;
32788;SDS011;19141;48.980;8.410;2022-10-31T09:20:40;4.63;;;2.33;;
32788;SDS011;19141;48.980;8.410;2022-10-31T09:23:08;2.88;;;1.75;;
32788;SDS011;19141;48.980;8.410;2022-10-31T09:25:37;3.58;;;2.17;;
32788;SDS011;19141;48.980;8.410;2022-10-31T09:28:41;5.75;;;2.47;;
32788;SDS011;19141;48.980;8.410;2022-10-31T09:31:11;2.47;;;1.80;;
32788;SDS011;19141;48.980;8.410;2022-10-31T09:33:49;2.58;;;1.88;;
32788;SDS011;19141;48.980;8.410;2022-10-31T09:36:34;6.75;;;1.98;;
32788;SDS011;19141;48.980;8.410;2022-10-31T09:39:01;2.88;;;1.98;;
32788;SDS011;19141;48.980;8.410;2022-10-31T09:41:30;3.83;;;2.00;;
32788;SDS011;19141;48.980;8.410;2022-10-31T09:49:36;4.40;;;2.00;;
32788;SDS011;19141;48.980;8.410;2022-10-31T09:52:26;2.63;;;1.90;;
32788;SDS011;19141;48.980;8.410;2022-10-31T09:54:58;2.72;;;1.85;;
32788;SDS011;19141;48.980;8.410;2022-10-31T09:57:31;2.55;;;1.95;;
32788;SDS011;19141;48.980;8.410;2022-10-31T09:59:59;3.65;;;2.17;;
32788;SDS011;19141;48.980;8.410;2022-10-31T10:13:47;2.38;;;1.63;;
32788;SDS011;19141;48.980;8.410;2022-10-31T10:16:45;2.67;;;2.13;;
32788;SDS011;19141;48.980;8.410;2022-10-31T10:25:09;3.85;;;2.25;;
32788;SDS011;19141;48.980;8.410;2022-10-31T10:32:58;2.78;;;2.20;;
32788;SDS011;19141;48.980;8.410;2022-10-31T10:37:57;5.20;;;2.42;;
32788;SDS011;19141;48.980;8.410;2022-10-31T10:40:28;7.40;;;2.78;;
32788;SDS011;19141;48.980;8.410;2022-10-31T10:45:46;5.70;;;2.47;;
32788;SDS011;19141;48.980;8.410;2022-10-31T10:48:41;3.67;;;2.00;;
32788;SDS011;19141;48.980;8.410;2022-10-31T10:51:31;4.28;;;2.22;;
32788;SDS011;19141;48.980;8.410;2022-10-31T10:59:44;3.30;;;2.65;;
32788;SDS011;19141;48.980;8.410;2022-10-31T11:02:31;2.43;;;1.77;;
32788;SDS011;19141;48.980;8.410;2022-10-31T11:07:25;5.70;;;2.55;;
32788;SDS011;19141;48.980;8.410;2022-10-31T11:10:02;2.65;;;2.10;;
32788;SDS011;19141;48.980;8.410;2022-10-31T11:12:31;10.38;;;2.58;;
32788;SDS011;19141;48.980;8.410;2022-10-31T11:14:59;3.47;;;2.13;;
32788;SDS011;19141;48.980;8.410;2022-10-31T11:17:34;4.18;;;2.45;;
32788;SDS011;19141;48.980;8.410;2022-10-31T11:20:05;2.58;;;2.38;;
32788;SDS011;19141;48.980;8.410;2022-10-31T11:22:37;5.20;;;2.65;;
32788;SDS011;19141;48.980;8.410;2022-10-31T11:30:47;3.88;;;1.98;;
32788;SDS011;19141;48.980;8.410;2022-10-31T11:33:31;3.35;;;2.63;;
32788;SDS011;19141;48.980;8.410;2022-10-31T11:35:59;4.25;;;2.53;;
32788;SDS011;19141;48.980;8.410;2022-10-31T11:38:32;5.65;;;2.30;;
32788;SDS011;19141;48.980;8.410;2022-10-31T11:41:10;2.78;;;2.05;;
32788;SDS011;19141;48.980;8.410;2022-10-31T11:43:39;5.78;;;3.20;;
32788;SDS011;19141;48.980;8.410;2022-10-31T11:46:15;5.10;;;2.25;;
32788;SDS011;19141;48.980;8.410;2022-10-31T11:48:47;3.65;;;2.08;;
32788;SDS011;19141;48.980;8.410;2022-10-31T11:51:19;2.92;;;2.13;;
32788;SDS011;19141;48.980;8.410;2022-10-31T11:53:53;5.53;;;2.40;;
32788;SDS011;19141;48.980;8.410;2022-10-31T11:56:21;3.13;;;2.22;;
32788;SDS011;19141;48.980;8.410;2022-10-31T11:58:57;4.70;;;2.70;;
32788;SDS011;19141;48.980;8.410;2022-10-31T12:01:27;4.63;;;2.40;;
32788;SDS011;19141;48.980;8.410;2022-10-31T12:03:54;3.88;;;2.30;;
32788;SDS011;19141;48.980;8.410;2022-10-31T12:06:34;4.10;;;2.67;;
32788;SDS011;19141;48.980;8.410;2022-10-31T12:09:01;3.28;;;2.15;;
32788;SDS011;19141;48.980;8.410;2022-10-31T12:12:10;4.75;;;2.33;;
32788;SDS011;19141;48.980;8.410;2022-10-31T12:17:26;6.50;;;2.75;;
32788;SDS011;19141;48.980;8.410;2022-10-31T12:36:29;4.28;;;2.22;;
32788;SDS011;19141;48.980;8.410;2022-10-31T12:41:36;3.25;;;2.35;;
32788;SDS011;19141;48.980;8.410;2022-10-31T12:47:06;4.05;;;2.55;;
32788;SDS011;19141;48.980;8.410;2022-10-31T12:50:00;5.22;;;2.47;;
32788;SDS011;19141;48.980;8.410;2022-10-31T12:52:46;3.65;;;2.35;;
32788;SDS011;19141;48.980;8.410;2022-10-31T12:57:45;3.10;;;2.45;;
32788;SDS011;19141;48.980;8.410;2022-10-31T13:00:21;5.38;;;2.75;;
32788;SDS011;19141;48.980;8.410;2022-10-31T13:02:57;4.13;;;2.28;;
32788;SDS011;19141;48.980;8.410;2022-10-31T13:05:41;5.60;;;2.55;;
32788;SDS011;19141;48.980;8.410;2022-10-31T13:08:18;9.52;;;2.30;;
32788;SDS011;19141;48.980;8.410;2022-10-31T13:10:48;7.38;;;2.33;;
32788;SDS011;19141;48.980;8.410;2022-10-31T13:16:02;5.07;;;2.47;;
32788;SDS011;19141;48.980;8.410;2022-10-31T13:18:35;4.22;;;2.30;;
32788;SDS011;19141;48.980;8.410;2022-10-31T13:21:10;4.63;;;2.95;;
32788;SDS011;19141;48.980;8.410;2022-10-31T13:23:40;5.75;;;2.70;;
32788;SDS011;19141;48.980;8.410;2022-10-31T13:26:12;9.77;;;2.40;;
32788;SDS011;19141;48.980;8.410;2022-10-31T13:28:59;4.22;;;2.28;;
32788;SDS011;19141;48.980;8.410;2022-10-31T13:31:43;3.40;;;2.03;;
32788;SDS011;19141;48.980;8.410;2022-10-31T13:37:01;6.10;;;2.20;;
32788;SDS011;19141;48.980;8.410;2022-10-31T13:42:21;3.80;;;2.50;;
32788;SDS011;19141;48.980;8.410;2022-10-31T13:45:08;5.13;;;2.40;;
32788;SDS011;19141;48.980;8.410;2022-10-31T13:47:40;4.13;;;2.10;;
32788;SDS011;19141;48.980;8.410;2022-10-31T13:50:21;7.28;;;3.42;;
32788;SDS011;19141;48.980;8.410;2022-10-31T13:52:49;5.90;;;3.22;;
32788;SDS011;19141;48.980;8.410;2022-10-31T13:58:26;4.38;;;2.80;;
32788;SDS011;19141;48.980;8.410;2022-10-31T14:01:12;9.60;;;2.83;;
32788;SDS011;19141;48.980;8.410;2022-10-31T14:03:44;5.72;;;2.72;;
32788;SDS011;19141;48.980;8.410;2022-10-31T14:06:12;4.60;;;2.63;;
32788;SDS011;19141;48.980;8.410;2022-10-31T14:08:41;4.30;;;2.95;;
32788;SDS011;19141;48.980;8.410;2022-10-31T14:11:19;6.18;;;2.60;;
32788;SDS011;19141;48.980;8.410;2022-10-31T14:13:49;6.80;;;3.05;;
32788;SDS011;19141;48.980;8.410;2022-10-31T14:16:23;5.22;;;2.72;;
32788;SDS011;19141;48.980;8.410;2022-10-31T14:18:56;4.00;;;2.80;;
32788;SDS011;19141;48.980;8.410;2022-10-31T14:21:27;5.00;;;2.42;;
32788;SDS011;19141;48.980;8.410;2022-10-31T14:23:55;8.43;;;4.55;;
32788;SDS011;19141;48.980;8.410;2022-10-31T14:28:57;6.40;;;2.90;;
32788;SDS011;19141;48.980;8.410;2022-10-31T14:31:29;4.68;;;2.40;;
32788;SDS011;19141;48.980;8.410;2022-10-31T14:33:58;5.45;;;2.45;;
32788;SDS011;19141;48.980;8.410;2022-10-31T14:36:31;3.97;;;2.65;;
32788;SDS011;19141;48.980;8.410;2022-10-31T14:41:59;5.13;;;2.42;;
32788;SDS011;19141;48.980;8.410;2022-10-31T14:44:34;3.53;;;2.38;;
32788;SDS011;19141;48.980;8.410;2022-10-31T14:47:31;5.10;;;2.97;;
32788;SDS011;19141;48.980;8.410;2022-10-31T14:52:47;6.35;;;2.50;;
32788;SDS011;19141;48.980;8.410;2022-10-31T14:55:25;3.67;;;2.45;;
32788;SDS011;19141;48.980;8.410;2022-10-31T14:57:55;5.35;;;2.92;;
32788;SDS011;19141;48.980;8.410;2022-10-31T15:00:27;6.45;;;3.40;;
32788;SDS011;19141;48.980;8.410;2022-10-31T15:05:48;2.85;;;2.13;;
32788;SDS011;19141;48.980;8.410;2022-10-31T15:13:44;13.82;;;5.15;;
32788;SDS011;19141;48.980;8.410;2022-10-31T15:16:15;4.30;;;2.85;;
32788;SDS011;19141;48.980;8.410;2022-10-31T15:18:49;4.57;;;2.35;;
32788;SDS011;19141;48.980;8.410;2022-10-31T15:21:16;3.40;;;2.50;;
32788;SDS011;19141;48.980;8.410;2022-10-31T15:23:42;5.82;;;3.05;;
32788;SDS011;19141;48.980;8.410;2022-10-31T15:26:14;4.97;;;2.53;;
32788;SDS011;19141;48.980;8.410;2022-10-31T15:28:42;3.95;;;2.50;;
32788;SDS011;19141;48.980;8.410;2022-10-31T15:31:17;5.72;;;2.85;;
32788;SDS011;19141;48.980;8.410;2022-10-31T15:33:45;4.65;;;2.60;;
32788;SDS011;19141;48.980;8.410;2022-10-31T15:36:20;5.50;;;3.00;;
32788;SDS011;19141;48.980;8.410;2022-10-31T15:38:47;5.22;;;2.85;;
32788;SDS011;19141;48.980;8.410;2022-10-31T15:41:22;9.75;;;3.08;;
32788;SDS011;19141;48.980;8.410;2022-10-31T15:43:51;6.95;;;3.53;;
32788;SDS011;19141;48.980;8.410;2022-10-31T15:46:16;6.38;;;2.72;;
32788;SDS011;19141;48.980;8.410;2022-10-31T15:48:45;4.57;;;2.63;;
32788;SDS011;19141;48.980;8.410;2022-10-31T15:51:12;6.38;;;2.67;;
32788;SDS011;19141;48.980;8.410;2022-10-31T15:53:43;5.78;;;2.63;;
32788;SDS011;19141;48.980;8.410;2022-10-31T15:56:22;4.90;;;2.75;;
32788;SDS011;19141;48.980;8.410;2022-10-31T15:58:56;7.10;;;2.60;;
32788;SDS011;19141;48.980;8.410;2022-10-31T16:01:27;5.00;;;2.83;;
32788;SDS011;19141;48.980;8.410;2022-10-31T16:06:35;6.45;;;2.75;;
32788;SDS011;19141;48.980;8.410;2022-10-31T16:09:00;5.10;;;2.95;;
32788;SDS011;19141;48.980;8.410;2022-10-31T16:11:36;5.80;;;3.03;;
32788;SDS011;19141;48.980;8.410;2022-10-31T16:14:05;4.65;;;2.72;;
32788;SDS011;19141;48.980;8.410;2022-10-31T16:16:33;4.97;;;3.00;;
32788;SDS011;19141;48.980;8.410;2022-10-31T16:19:05;8.10;;;3.40;;
32788;SDS011;19141;48.980;8.410;2022-10-31T16:21:41;5.47;;;3.53;;
32788;SDS011;19141;48.980;8.410;2022-10-31T16:24:15;4.97;;;3.17;;
32788;SDS011;19141;48.980;8.410;2022-10-31T16:26:48;4.97;;;3.00;;
32788;SDS011;19141;48.980;8.410;2022-10-31T16:35:26;4.13;;;2.63;;
32788;SDS011;19141;48.980;8.410;2022-10-31T16:37:56;8.70;;;3.10;;
32788;SDS011;19141;48.980;8.410;2022-10-31T16:40:22;8.70;;;3.30;;
32788;SDS011;19141;48.980;8.410;2022-10-31T16:42:47;6.97;;;2.78;;
32788;SDS011;19141;48.980;8.410;2022-10-31T16:45:18;7.47;;;3.33;;
32788;SDS011;19141;48.980;8.410;2022-10-31T16:47:48;6.28;;;2.75;;
32788;SDS011;19141;48.980;8.410;2022-10-31T16:50:21;6.35;;;2.88;;
32788;SDS011;19141;48.980;8.410;2022-10-31T16:52:48;4.43;;;2.67;;
32788;SDS011;19141;48.980;8.410;2022-10-31T16:55:14;6.10;;;3.15;;
32788;SDS011;19141;48.980;8.410;2022-10-31T16:57:45;6.73;;;3.57;;
32788;SDS011;19141;48.980;8.410;2022-10-31T17:00:14;6.40;;;3.05;;
32788;SDS011;19141;48.980;8.410;2022-10-31T17:02:40;6.13;;;3.20;;
32788;SDS011;19141;48.980;8.410;2022-10-31T17:05:08;7.72;;;3.58;;
32788;SDS011;19141;48.980;8.410;2022-10-31T17:07:36;6.88;;;3.45;;
32788;SDS011;19141;48.980;8.410;2022-10-31T17:10:01;5.10;;;2.97;;
32788;SDS011;19141;48.980;8.410;2022-10-31T17:12:27;6.40;;;3.88;;
32788;SDS011;19141;48.980;8.410;2022-10-31T17:14:53;5.30;;;3.53;;
32788;SDS011;19141;48.980;8.410;2022-10-31T17:17:18;6.38;;;3.22;;
32788;SDS011;19141;48.980;8.410;2022-10-31T17:19:43;7.55;;;3.42;;
32788;SDS011;19141;48.980;8.410;2022-10-31T17:22:10;11.23;;;3.90;;
32788;SDS011;19141;48.980;8.410;2022-10-31T17:24:37;5.32;;;3.17;;
32788;SDS011;19141;48.980;8.410;2022-10-31T17:27:02;5.05;;;3.00;;
32788;SDS011;19141;48.980;8.410;2022-10-31T17:29:27;7.63;;;3.10;;
32788;SDS011;19141;48.980;8.410;2022-10-31T17:31:53;5.68;;;2.97;;
32788;SDS011;19141;48.980;8.410;2022-10-31T17:34:18;5.57;;;4.03;;
32788;SDS011;19141;48.980;8.410;2022-10-31T17:36:48;7.00;;;3.63;;
32788;SDS011;19141;48.980;8.410;2022-10-31T17:39:15;3.92;;;2.85;;
32788;SDS011;19141;48.980;8.410;2022-10-31T17:41:41;5.53;;;3.13;;
32788;SDS011;19141;48.980;8.410;2022-10-31T17:44:08;3.58;;;2.80;;
32788;SDS011;19141;48.980;8.410;2022-10-31T17:46:34;4.35;;;2.80;;
32788;SDS011;19141;48.980;8.410;2022-10-31T17:49:00;5.43;;;3.25;;
32788;SDS011;19141;48.980;8.410;2022-10-31T17:51:25;5.97;;;3.65;;
32788;SDS011;19141;48.980;8.410;2022-10-31T17:53:51;5.43;;;3.30;;
32788;SDS011;19141;48.980;8.410;2022-10-31T17:56:16;7.43;;;3.17;;
32788;SDS011;19141;48.980;8.410;2022-10-31T17:58:42;5.07;;;3.40;;
32788;SDS011;19141;48.980;8.410;2022-10-31T18:01:12;4.72;;;3.42;;
32788;SDS011;19141;48.980;8.410;2022-10-31T18:03:39;7.00;;;4.00;;
32788;SDS011;19141;48.980;8.410;2022-10-31T18:06:05;8.77;;;3.80;;
32788;SDS011;19141;48.980;8.410;2022-10-31T18:08:32;5.90;;;3.97;;
32788;SDS011;19141;48.980;8.410;2022-10-31T18:10:59;4.80;;;3.55;;
32788;SDS011;19141;48.980;8.410;2022-10-31T18:13:29;6.75;;;3.90;;
32788;SDS011;19141;48.980;8.410;2022-10-31T18:15:54;7.15;;;4.15;;
32788;SDS011;19141;48.980;8.410;2022-10-31T18:18:20;8.10;;;4.35;;
32788;SDS011;19141;48.980;8.410;2022-10-31T18:20:46;6.65;;;3.63;;
32788;SDS011;19141;48.980;8.410;2022-10-31T18:23:11;4.60;;;3.70;;
32788;SDS011;19141;48.980;8.410;2022-10-31T18:25:37;6.75;;;3.70;;
32788;SDS011;19141;48.980;8.410;2022-10-31T18:28:04;6.43;;;3.83;;
32788;SDS011;19141;48.980;8.410;2022-10-31T18:30:30;8.07;;;4.07;;
32788;SDS011;19141;48.980;8.410;2022-10-31T18:32:56;5.40;;;4.25;;
32788;SDS011;19141;48.980;8.410;2022-10-31T18:35:22;7.10;;;3.85;;
32788;SDS011;19141;48.980;8.410;2022-10-31T18:37:47;7.03;;;4.15;;
32788;SDS011;19141;48.980;8.410;2022-10-31T18:40:12;7.10;;;4.43;;
32788;SDS011;19141;48.980;8.410;2022-10-31T18:42:38;6.43;;;3.97;;
32788;SDS011;19141;48.980;8.410;2022-10-31T18:45:04;5.35;;;3.80;;
32788;SDS011;19141;48.980;8.410;2022-10-31T18:47:29;7.03;;;4.72;;
32788;SDS011;19141;48.980;8.410;2022-10-31T18:49:55;6.53;;;4.15;;
32788;SDS011;19141;48.980;8.410;2022-10-31T18:52:20;9.27;;;4.45;;
32788;SDS011;19141;48.980;8.410;2022-10-31T18:54:46;6.75;;;3.97;;
32788;SDS011;19141;48.980;8.410;2022-10-31T18:57:11;6.82;;;4.35;;
32788;SDS011;19141;48.980;8.410;2022-10-31T18:59:37;5.72;;;4.28;;
32788;SDS011;19141;48.980;8.410;2022-10-31T19:02:02;9.50;;;3.92;;
32788;SDS011;19141;48.980;8.410;2022-10-31T19:04:28;6.30;;;4.47;;
32788;SDS011;19141;48.980;8.410;2022-10-31T19:06:53;6.15;;;4.35;;
32788;SDS011;19141;48.980;8.410;2022-10-31T19:09:19;6.32;;;4.35;;
32788;SDS011;19141;48.980;8.410;2022-10-31T19:11:45;7.78;;;3.92;;
32788;SDS011;19141;48.980;8.410;2022-10-31T19:14:11;5.45;;;3.22;;
32788;SDS011;19141;48.980;8.410;2022-10-31T19:16:38;6.13;;;3.70;;
32788;SDS011;19141;48.980;8.410;2022-10-31T19:19:04;7.97;;;4.47;;
32788;SDS011;19141;48.980;8.410;2022-10-31T19:21:29;9.50;;;5.00;;
32788;SDS011;19141;48.980;8.410;2022-10-31T19:23:56;7.07;;;4.03;;
32788;SDS011;19141;48.980;8.410;2022-10-31T19:26:23;6.93;;;4.10;;
32788;SDS011;19141;48.980;8.410;2022-10-31T19:28:49;6.70;;;4.43;;
32788;SDS011;19141;48.980;8.410;2022-10-31T19:31:14;7.30;;;4.95;;
32788;SDS011;19141;48.980;8.410;2022-10-31T19:33:41;6.47;;;3.15;;
32788;SDS011;19141;48.980;8.410;2022-10-31T19:36:16;5.38;;;3.58;;
32788;SDS011;19141;48.980;8.410;2022-10-31T19:38:43;5.05;;;3.58;;
32788;SDS011;19141;48.980;8.410;2022-10-31T19:41:25;6.10;;;3.45;;
32788;SDS011;19141;48.980;8.410;2022-10-31T19:43:52;10.57;;;5.55;;
32788;SDS011;19141;48.980;8.410;2022-10-31T19:46:19;6.95;;;3.90;;
32788;SDS011;19141;48.980;8.410;2022-10-31T19:48:45;5.72;;;3.75;;
32788;SDS011;19141;48.980;8.410;2022-10-31T19:51:12;8.27;;;3.78;;
32788;SDS011;19141;48.980;8.410;2022-10-31T19:56:15;5.82;;;3.88;;
32788;SDS011;19141;48.980;8.410;2022-10-31T20:01:12;9.23;;;4.70;;
32788;SDS011;19141;48.980;8.410;2022-10-31T20:03:40;7.57;;;3.67;;
32788;SDS011;19141;48.980;8.410;2022-10-31T20:06:07;6.43;;;3.90;;
32788;SDS011;19141;48.980;8.410;2022-10-31T20:08:39;7.00;;;3.78;;
32788;SDS011;19141;48.980;8.410;2022-10-31T20:11:05;4.82;;;3.78;;
32788;SDS011;19141;48.980;8.410;2022-10-31T20:13:30;9.15;;;3.70;;
32788;SDS011;19141;48.980;8.410;2022-10-31T20:16:04;6.82;;;4.30;;
32788;SDS011;19141;48.980;8.410;2022-10-31T20:18:32;9.18;;;4.57;;
32788;SDS011;19141;48.980;8.410;2022-10-31T20:21:05;5.55;;;3.50;;
32788;SDS011;19141;48.980;8.410;2022-10-31T20:23:33;5.72;;;4.10;;
32788;SDS011;19141;48.980;8.410;2022-10-31T20:25:59;8.68;;;4.53;;
32788;SDS011;19141;48.980;8.410;2022-10-31T20:28:26;6.10;;;3.80;;
32788;SDS011;19141;48.980;8.410;2022-10-31T20:30:51;9.30;;;4.90;;
32788;SDS011;19141;48.980;8.410;2022-10-31T20:33:17;7.28;;;4.45;;
32788;SDS011;19141;48.980;8.410;2022-10-31T20:35:43;4.97;;;4.10;;
32788;SDS011;19141;48.980;8.410;2022-10-31T20:38:08;8.05;;;4.90;;
32788;SDS011;19141;48.980;8.410;2022-10-31T20:40:34;7.43;;;4.60;;
32788;SDS011;19141;48.980;8.410;2022-10-31T20:43:01;9.10;;;5.00;;
32788;SDS011;19141;48.980;8.410;2022-10-31T20:45:28;6.30;;;4.65;;
32788;SDS011;19141;48.980;8.410;2022-10-31T20:47:54;8.40;;;4.72;;
32788;SDS011;19141;48.980;8.410;2022-10-31T20:50:19;9.52;;;5.30;;
32788;SDS011;19141;48.980;8.410;2022-10-31T20:52:45;6.75;;;4.68;;
32788;SDS011;19141;48.980;8.410;2022-10-31T20:55:11;6.65;;;4.60;;
32788;SDS011;19141;48.980;8.410;2022-10-31T20:57:36;9.38;;;4.45;;
32788;SDS011;19141;48.980;8.410;2022-10-31T21:00:02;11.15;;;5.50;;
32788;SDS011;19141;48.980;8.410;2022-10-31T21:02:28;9.40;;;4.50;;
32788;SDS011;19141;48.980;8.410;2022-10-31T21:04:54;7.72;;;4.80;;
32788;SDS011;19141;48.980;8.410;2022-10-31T21:07:19;6.18;;;3.97;;
32788;SDS011;19141;48.980;8.410;2022-10-31T21:09:44;4.85;;;3.50;;
32788;SDS011;19141;48.980;8.410;2022-10-31T21:12:10;6.60;;;4.45;;
32788;SDS011;19141;48.980;8.410;2022-10-31T21:14:35;9.93;;;5.70;;
32788;SDS011;19141;48.980;8.410;2022-10-31T21:17:01;4.90;;;3.95;;
32788;SDS011;19141;48.980;8.410;2022-10-31T21:19:27;5.65;;;4.25;;
32788;SDS011;19141;48.980;8.410;2022-10-31T21:21:53;7.03;;;4.43;;
32788;SDS011;19141;48.980;8.410;2022-10-31T21:24:18;7.78;;;4.32;;
32788;SDS011;19141;48.980;8.410;2022-10-31T21:26:46;5.85;;;3.80;;
32788;SDS011;19141;48.980;8.410;2022-10-31T21:29:13;5.28;;;3.85;;
32788;SDS011;19141;48.980;8.410;2022-10-31T21:31:40;6.22;;;3.47;;
32788;SDS011;19141;48.980;8.410;2022-10-31T21:34:06;4.00;;;3.58;;
32788;SDS011;19141;48.980;8.410;2022-10-31T21:36:31;5.28;;;4.00;;
32788;SDS011;19141;48.980;8.410;2022-10-31T21:38:58;4.70;;;3.30;;
32788;SDS011;19141;48.980;8.410;2022-10-31T21:41:24;4.60;;;3.70;;
32788;SDS011;19141;48.980;8.410;2022-10-31T21:43:51;5.78;;;3.58;;
32788;SDS011;19141;48.980;8.410;2022-10-31T21:46:23;5.65;;;4.22;;
32788;SDS011;19141;48.980;8.410;2022-10-31T21:48:54;5.38;;;3.70;;
32788;SDS011;19141;48.980;8.410;2022-10-31T21:51:22;5.00;;;3.50;;
32788;SDS011;19141;48.980;8.410;2022-10-31T21:53:49;7.40;;;3.30;;
32788;SDS011;19141;48.980;8.410;2022-10-31T21:56:34;4.78;;;3.65;;
32788;SDS011;19141;48.980;8.410;2022-10-31T21:59:00;5.88;;;3.83;;
32788;SDS011;19141;48.980;8.410;2022-10-31T22:01:26;4.50;;;3.72;;
32788;SDS011;19141;48.980;8.410;2022-10-31T22:03:53;4.70;;;3.05;;
32788;SDS011;19141;48.980;8.410;2022-10-31T22:06:19;8.02;;;4.88;;
32788;SDS011;19141;48.980;8.410;2022-10-31T22:08:44;6.30;;;3.78;;
32788;SDS011;19141;48.980;8.410;2022-10-31T22:11:11;5.35;;;3.92;;
32788;SDS011;19141;48.980;8.410;2022-10-31T22:13:39;5.60;;;3.80;;
32788;SDS011;19141;48.980;8.410;2022-10-31T22:16:07;8.30;;;4.00;;
32788;SDS011;19141;48.980;8.410;2022-10-31T22:18:34;6.07;;;3.55;;
32788;SDS011;19141;48.980;8.410;2022-10-31T22:21:04;5.22;;;3.53;;
32788;SDS011;19141;48.980;8.410;2022-10-31T22:23:34;6.43;;;3.75;;
32788;SDS011;19141;48.980;8.410;2022-10-31T22:26:04;8.18;;;4.00;;
32788;SDS011;19141;48.980;8.410;2022-10-31T22:28:32;7.53;;;3.58;;
32788;SDS011;19141;48.980;8.410;2022-10-31T22:31:02;9.73;;;3.67;;